Time;durP1;ratioP1;P1;durP2;ratioP2;P2;SDS_P1;SDS_P2;PMS_P1;PMS_P2;Temp;Humidity;BMP_temperature;BMP_pressure;BME280_temperature;BME280_humidity;BME280_pressure;Samples;Min_cycle;Max_cycle;Signal;HPM_P1;HPM_P2
2023/07/09 00:00:15;;;;;;;1.33;1.33;;;;;;;;;;4970625;28;20212;-86
2023/07/09 00:02:44;;;;;;;0.93;0.93;;;;;;;;;;4969788;28;20197;-86
2023/07/09 00:05:14;;;;;;;1.87;1.80;;;;;;;;;;4970178;28;20236;-85
2023/07/09 00:07:44;;;;;;;0.77;0.77;;;;;;;;;;4970438;28;20198;-85
2023/07/09 00:10:17;;;;;;;5.63;3.53;;;;;;;;;;4970083;28;20208;-85
2023/07/09 00:12:46;;;;;;;17.80;10.73;;;;;;;;;;4969935;28;20204;-85
2023/07/09 00:15:18;;;;;;;16.97;14.63;;;;;;;;;;4970451;28;20205;-85
2023/07/09 00:17:46;;;;;;;13.23;11.83;;;;;;;;;;4970327;28;20227;-85
2023/07/09 00:20:16;;;;;;;12.13;9.77;;;;;;;;;;4969381;28;20208;-85
2023/07/09 00:22:48;;;;;;;1.70;1.53;;;;;;;;;;4970059;28;20232;-85
2023/07/09 00:25:16;;;;;;;1.93;1.17;;;;;;;;;;4969678;28;20214;-85
2023/07/09 00:27:48;;;;;;;0.20;0.20;;;;;;;;;;4969889;28;20222;-85
2023/07/09 00:30:18;;;;;;;0.83;0.83;;;;;;;;;;4969563;28;20196;-85
2023/07/09 00:32:46;;;;;;;0.93;0.93;;;;;;;;;;4970213;28;20204;-85
2023/07/09 00:35:15;;;;;;;7.37;4.20;;;;;;;;;;4969610;28;20212;-85
2023/07/09 00:37:44;;;;;;;0.23;0.23;;;;;;;;;;4969301;28;20230;-85
2023/07/09 00:40:18;;;;;;;4.10;3.80;;;;;;;;;;4969522;28;20207;-84
2023/07/09 00:42:47;;;;;;;9.40;6.70;;;;;;;;;;4970037;28;20342;-85
2023/07/09 00:45:21;;;;;;;10.00;8.23;;;;;;;;;;4969617;28;20211;-85
2023/07/09 00:47:53;;;;;;;2.63;2.43;;;;;;;;;;4970032;28;20207;-84
2023/07/09 00:50:36;;;;;;;5.03;3.87;;;;;;;;;;4970134;28;20201;-86
2023/07/09 00:53:07;;;;;;;10.73;6.30;;;;;;;;;;4969924;28;20229;-87
2023/07/09 00:55:40;;;;;;;1.90;1.80;;;;;;;;;;4969626;28;20214;-85
2023/07/09 00:58:11;;;;;;;4.00;3.33;;;;;;;;;;4970012;28;20227;-86
2023/07/09 01:00:46;;;;;;;5.23;2.10;;;;;;;;;;4970006;28;20206;-86
2023/07/09 01:03:17;;;;;;;3.13;2.63;;;;;;;;;;4969901;28;20199;-86
2023/07/09 01:05:51;;;;;;;0.80;0.80;;;;;;;;;;4972741;28;20251;-86
2023/07/09 01:08:21;;;;;;;2.93;1.90;;;;;;;;;;4972991;28;20260;-86
2023/07/09 01:10:57;;;;;;;3.90;3.60;;;;;;;;;;4973348;28;20219;-86
2023/07/09 01:13:27;;;;;;;0.50;0.50;;;;;;;;;;4972617;28;20253;-86
2023/07/09 01:15:56;;;;;;;5.97;4.67;;;;;;;;;;4972709;28;20205;-86
2023/07/09 01:18:25;;;;;;;11.03;7.50;;;;;;;;;;4972959;28;20228;-86
2023/07/09 01:20:53;;;;;;;8.77;7.50;;;;;;;;;;4972597;28;20207;-85
2023/07/09 01:23:23;;;;;;;17.53;10.40;;;;;;;;;;4972959;28;20215;-85
2023/07/09 01:25:54;;;;;;;10.97;8.30;;;;;;;;;;4972604;28;20220;-85
2023/07/09 01:28:22;;;;;;;8.23;7.13;;;;;;;;;;4972670;28;20235;-85
2023/07/09 01:30:53;;;;;;;2.77;2.57;;;;;;;;;;4972406;28;20291;-85
2023/07/09 01:33:23;;;;;;;0.20;0.20;;;;;;;;;;4972473;28;20265;-84
2023/07/09 01:35:52;;;;;;;0.23;0.23;;;;;;;;;;4972673;28;20230;-85
2023/07/09 01:38:21;;;;;;;0.80;0.80;;;;;;;;;;4972293;28;20246;-85
2023/07/09 01:40:51;;;;;;;0.30;0.30;;;;;;;;;;4972324;28;20232;-85
2023/07/09 01:43:19;;;;;;;14.53;12.53;;;;;;;;;;4972743;28;20211;-85
2023/07/09 01:45:49;;;;;;;13.90;11.67;;;;;;;;;;4971940;28;20193;-85
2023/07/09 01:48:19;;;;;;;13.57;12.07;;;;;;;;;;4972205;28;20243;-85
2023/07/09 01:50:52;;;;;;;15.80;14.10;;;;;;;;;;4972439;28;20212;-86
2023/07/09 01:53:23;;;;;;;17.50;14.83;;;;;;;;;;4972506;28;20206;-86
2023/07/09 01:55:55;;;;;;;2.73;2.47;;;;;;;;;;4971804;28;20225;-86
2023/07/09 01:58:24;;;;;;;15.80;12.47;;;;;;;;;;4972298;28;20242;-85
2023/07/09 02:00:53;;;;;;;13.37;12.07;;;;;;;;;;4972361;28;20205;-85
2023/07/09 02:03:22;;;;;;;19.53;15.53;;;;;;;;;;4971766;28;20222;-86
2023/07/09 02:05:51;;;;;;;23.80;17.80;;;;;;;;;;4971866;28;20246;-86
2023/07/09 02:08:20;;;;;;;21.57;18.57;;;;;;;;;;4972197;28;20230;-86
2023/07/09 02:10:50;;;;;;;18.77;15.00;;;;;;;;;;4971522;28;20205;-86
2023/07/09 02:13:19;;;;;;;15.17;13.53;;;;;;;;;;4972076;28;20203;-86
2023/07/09 02:15:48;;;;;;;21.77;15.30;;;;;;;;;;4971392;28;20212;-86
2023/07/09 02:18:16;;;;;;;16.17;14.43;;;;;;;;;;4971832;28;20220;-86
2023/07/09 02:20:47;;;;;;;19.23;17.13;;;;;;;;;;4971759;28;20224;-86
2023/07/09 02:23:15;;;;;;;18.20;15.40;;;;;;;;;;4971396;28;20201;-86
2023/07/09 02:25:44;;;;;;;20.90;14.33;;;;;;;;;;4971854;28;20201;-86
2023/07/09 02:28:12;;;;;;;17.87;12.73;;;;;;;;;;4971759;28;20224;-86
2023/07/09 02:30:42;;;;;;;21.60;18.30;;;;;;;;;;4971510;28;20200;-86
2023/07/09 02:33:11;;;;;;;18.77;16.60;;;;;;;;;;4971960;28;20213;-86
2023/07/09 02:35:40;;;;;;;20.60;18.27;;;;;;;;;;4971875;28;20205;-86
2023/07/09 02:38:08;;;;;;;18.17;16.27;;;;;;;;;;4971483;28;20208;-86
2023/07/09 02:40:36;;;;;;;23.03;14.87;;;;;;;;;;4971911;28;20208;-86
2023/07/09 02:43:05;;;;;;;15.83;12.07;;;;;;;;;;4971796;28;20212;-86
2023/07/09 02:45:33;;;;;;;20.73;16.80;;;;;;;;;;4971411;28;20229;-87
2023/07/09 02:48:04;;;;;;;13.90;12.53;;;;;;;;;;4970760;28;20204;-85
2023/07/09 02:50:32;;;;;;;10.87;8.50;;;;;;;;;;4971970;28;20216;-85
2023/07/09 02:53:01;;;;;;;11.73;10.50;;;;;;;;;;4971344;28;20214;-85
2023/07/09 02:55:30;;;;;;;18.20;16.30;;;;;;;;;;4971047;28;20205;-85
2023/07/09 02:57:58;;;;;;;17.10;12.93;;;;;;;;;;4971090;28;20212;-85
2023/07/09 03:00:27;;;;;;;15.63;13.77;;;;;;;;;;4971151;28;20234;-85
2023/07/09 03:02:55;;;;;;;21.23;16.90;;;;;;;;;;4970912;28;20305;-85
2023/07/09 03:05:25;;;;;;;15.57;12.83;;;;;;;;;;4970813;28;20274;-85
2023/07/09 03:07:54;;;;;;;19.37;16.20;;;;;;;;;;4971432;28;20208;-86
2023/07/09 03:10:22;;;;;;;10.67;8.37;;;;;;;;;;4970974;28;20231;-86
2023/07/09 03:12:51;;;;;;;23.10;18.63;;;;;;;;;;4970656;28;20204;-86
2023/07/09 03:15:19;;;;;;;24.20;19.43;;;;;;;;;;4971392;28;20208;-86
2023/07/09 03:17:48;;;;;;;13.30;9.93;;;;;;;;;;4971280;28;20268;-86
2023/07/09 03:20:16;;;;;;;22.40;17.57;;;;;;;;;;4970926;28;20254;-86
2023/07/09 03:22:46;;;;;;;24.00;14.20;;;;;;;;;;4970152;28;20208;-86
2023/07/09 03:25:15;;;;;;;10.77;7.40;;;;;;;;;;4970272;28;20205;-86
2023/07/09 03:27:43;;;;;;;1.23;1.20;;;;;;;;;;4970597;28;20217;-86
2023/07/09 03:30:12;;;;;;;6.40;5.50;;;;;;;;;;4970559;28;20209;-87
2023/07/09 03:32:41;;;;;;;9.40;7.93;;;;;;;;;;4970696;28;20204;-86
2023/07/09 03:35:10;;;;;;;0.90;0.90;;;;;;;;;;4970706;28;20189;-86
2023/07/09 03:37:38;;;;;;;1.53;1.43;;;;;;;;;;4970579;28;20205;-86
2023/07/09 03:40:12;;;;;;;1.37;1.27;;;;;;;;;;4970354;28;20209;-86
2023/07/09 03:42:40;;;;;;;1.17;1.17;;;;;;;;;;4970617;28;20201;-86
2023/07/09 03:45:09;;;;;;;0.40;0.40;;;;;;;;;;4970321;28;20231;-86
2023/07/09 03:47:37;;;;;;;1.13;1.13;;;;;;;;;;4970156;28;20193;-86
2023/07/09 03:50:07;;;;;;;0.30;0.30;;;;;;;;;;4970703;28;20302;-86
2023/07/09 03:52:35;;;;;;;4.33;3.77;;;;;;;;;;4970418;28;20204;-86
2023/07/09 03:55:05;;;;;;;5.27;4.73;;;;;;;;;;4970389;28;20214;-86
2023/07/09 03:57:35;;;;;;;5.10;3.40;;;;;;;;;;4970347;28;20244;-86
2023/07/09 04:00:05;;;;;;;3.27;2.67;;;;;;;;;;4970689;28;20222;-87
2023/07/09 04:02:33;;;;;;;2.07;1.90;;;;;;;;;;4970042;28;20228;-85
2023/07/09 04:05:02;;;;;;;2.93;2.73;;;;;;;;;;4970091;28;20252;-85
2023/07/09 04:07:31;;;;;;;4.83;3.13;;;;;;;;;;4970574;28;20207;-85
2023/07/09 04:09:59;;;;;;;1.50;1.40;;;;;;;;;;4970639;28;20212;-85
2023/07/09 04:12:28;;;;;;;3.07;2.67;;;;;;;;;;4969823;28;20197;-85
2023/07/09 04:14:58;;;;;;;4.67;4.00;;;;;;;;;;4970025;28;20212;-85
2023/07/09 04:17:27;;;;;;;0.20;0.20;;;;;;;;;;4970407;28;20200;-85
2023/07/09 04:19:55;;;;;;;2.97;2.73;;;;;;;;;;4970471;28;20226;-86
2023/07/09 04:22:24;;;;;;;7.40;6.47;;;;;;;;;;4969670;28;20214;-86
2023/07/09 04:24:53;;;;;;;3.93;3.60;;;;;;;;;;4970277;28;20425;-86
2023/07/09 04:27:21;;;;;;;4.03;3.73;;;;;;;;;;4970601;28;20235;-85
2023/07/09 04:29:50;;;;;;;1.53;1.43;;;;;;;;;;4970126;28;20227;-86
2023/07/09 04:32:20;;;;;;;0.83;0.83;;;;;;;;;;4969925;28;20201;-86
2023/07/09 04:34:49;;;;;;;16.40;2.73;;;;;;;;;;4970203;28;20277;-85
2023/07/09 04:37:18;;;;;;;0.37;0.37;;;;;;;;;;4970792;28;20204;-85
2023/07/09 04:39:47;;;;;;;0.20;0.20;;;;;;;;;;4973009;28;20219;-85
2023/07/09 04:42:17;;;;;;;0.20;0.20;;;;;;;;;;4973520;28;20211;-85
2023/07/09 04:44:46;;;;;;;0.67;0.67;;;;;;;;;;4973427;28;20197;-85
2023/07/09 04:47:14;;;;;;;2.33;2.13;;;;;;;;;;4973184;28;20211;-85
2023/07/09 04:49:44;;;;;;;1.93;1.77;;;;;;;;;;4972715;28;20208;-85
2023/07/09 04:52:14;;;;;;;2.93;2.73;;;;;;;;;;4973342;28;20207;-85
2023/07/09 04:54:44;;;;;;;2.77;2.57;;;;;;;;;;4973112;28;20197;-85
2023/07/09 04:57:13;;;;;;;2.47;2.23;;;;;;;;;;4972909;28;20298;-86
2023/07/09 04:59:41;;;;;;;15.47;9.40;;;;;;;;;;4973232;28;20223;-86
2023/07/09 05:02:10;;;;;;;8.93;6.80;;;;;;;;;;4973102;28;20199;-86
2023/07/09 05:04:39;;;;;;;7.30;6.70;;;;;;;;;;4973045;28;20210;-86
2023/07/09 05:07:09;;;;;;;5.27;4.03;;;;;;;;;;4972676;28;20238;-86
2023/07/09 05:09:37;;;;;;;4.27;3.97;;;;;;;;;;4973090;28;20200;-86
2023/07/09 05:12:07;;;;;;;4.53;4.20;;;;;;;;;;4973097;28;20216;-87
2023/07/09 05:14:35;;;;;;;0.33;0.33;;;;;;;;;;4972739;28;20207;-86
2023/07/09 05:17:04;;;;;;;10.67;3.40;;;;;;;;;;4973315;28;20218;-87
2023/07/09 05:19:33;;;;;;;2.23;2.13;;;;;;;;;;4972800;28;20214;-86
2023/07/09 05:22:02;;;;;;;2.20;2.10;;;;;;;;;;4972325;28;20246;-86
2023/07/09 05:24:32;;;;;;;0.83;0.83;;;;;;;;;;4972822;28;20204;-86
2023/07/09 05:27:00;;;;;;;5.97;5.23;;;;;;;;;;4973090;28;20208;-87
2023/07/09 05:29:29;;;;;;;7.33;3.53;;;;;;;;;;4972821;28;20210;-85
2023/07/09 05:31:57;;;;;;;12.17;9.67;;;;;;;;;;4972254;28;20211;-85
2023/07/09 05:34:26;;;;;;;3.90;2.23;;;;;;;;;;4973186;28;20208;-85
2023/07/09 05:36:54;;;;;;;13.83;6.00;;;;;;;;;;4972972;28;20218;-85
2023/07/09 05:39:23;;;;;;;3.33;2.57;;;;;;;;;;4972447;28;20312;-85
2023/07/09 05:41:53;;;;;;;4.77;4.33;;;;;;;;;;4972231;28;20266;-85
2023/07/09 05:44:22;;;;;;;2.73;2.53;;;;;;;;;;4972181;28;20228;-85
2023/07/09 05:46:50;;;;;;;7.07;5.90;;;;;;;;;;4972595;28;20208;-85
2023/07/09 05:49:19;;;;;;;4.10;3.80;;;;;;;;;;4971532;28;20205;-86
2023/07/09 05:51:48;;;;;;;7.67;6.47;;;;;;;;;;4972689;28;20267;-86
2023/07/09 05:54:16;;;;;;;4.80;2.63;;;;;;;;;;4972146;28;20330;-86
2023/07/09 05:56:45;;;;;;;0.67;0.67;;;;;;;;;;4972509;28;20284;-86
2023/07/09 05:59:15;;;;;;;5.20;4.37;;;;;;;;;;4971892;28;20205;-85
2023/07/09 06:01:43;;;;;;;9.67;6.67;;;;;;;;;;4972301;28;20233;-85
2023/07/09 06:04:13;;;;;;;12.07;7.57;;;;;;;;;;4972450;28;20303;-85
2023/07/09 06:06:43;;;;;;;7.77;7.00;;;;;;;;;;4971433;28;20240;-86
2023/07/09 06:09:12;;;;;;;10.67;6.03;;;;;;;;;;4971728;28;20288;-86
2023/07/09 06:11:40;;;;;;;10.70;7.17;;;;;;;;;;4971813;28;20203;-86
2023/07/09 06:14:09;;;;;;;7.70;5.40;;;;;;;;;;4971657;28;20199;-85
2023/07/09 06:16:39;;;;;;;5.73;4.67;;;;;;;;;;4971498;28;20200;-85
2023/07/09 06:19:08;;;;;;;10.30;6.47;;;;;;;;;;4972258;28;20208;-85
2023/07/09 06:21:36;;;;;;;6.03;4.73;;;;;;;;;;4971590;28;20216;-85
2023/07/09 06:24:05;;;;;;;13.60;9.90;;;;;;;;;;4971119;28;20215;-85
2023/07/09 06:26:33;;;;;;;3.60;3.30;;;;;;;;;;4972274;28;20212;-85
2023/07/09 06:29:02;;;;;;;5.27;3.80;;;;;;;;;;4971857;28;20261;-85
2023/07/09 06:31:31;;;;;;;8.23;6.27;;;;;;;;;;4971444;28;20207;-85
2023/07/09 06:34:04;;;;;;;2.07;1.97;;;;;;;;;;4971561;28;20207;-85
2023/07/09 06:36:32;;;;;;;2.73;2.53;;;;;;;;;;4971904;28;20214;-86
2023/07/09 06:39:01;;;;;;;6.50;5.63;;;;;;;;;;4972170;28;20212;-85
2023/07/09 06:41:29;;;;;;;9.53;5.30;;;;;;;;;;4971296;28;20255;-85
2023/07/09 06:43:58;;;;;;;5.10;2.67;;;;;;;;;;4971827;28;20203;-85
2023/07/09 06:46:26;;;;;;;6.37;4.27;;;;;;;;;;4971654;28;20215;-85
2023/07/09 06:48:55;;;;;;;5.27;4.17;;;;;;;;;;4971699;28;20231;-85
2023/07/09 06:51:25;;;;;;;4.23;3.70;;;;;;;;;;4970872;28;20205;-85
2023/07/09 06:53:53;;;;;;;4.87;2.90;;;;;;;;;;4971696;28;20208;-85
2023/07/09 06:56:22;;;;;;;2.80;2.60;;;;;;;;;;4971631;28;20208;-85
2023/07/09 06:58:50;;;;;;;6.17;4.10;;;;;;;;;;4970856;28;20207;-85
2023/07/09 07:01:18;;;;;;;3.10;2.80;;;;;;;;;;4971119;28;20221;-85
2023/07/09 07:03:49;;;;;;;3.03;2.80;;;;;;;;;;4971759;28;20206;-85
2023/07/09 07:06:17;;;;;;;5.57;3.87;;;;;;;;;;4970884;28;20328;-85
2023/07/09 07:08:47;;;;;;;6.53;3.83;;;;;;;;;;4970912;28;20208;-85
2023/07/09 07:11:16;;;;;;;19.83;4.10;;;;;;;;;;4971091;28;20219;-85
2023/07/09 07:13:46;;;;;;;5.83;3.77;;;;;;;;;;4971440;28;20212;-85
2023/07/09 07:16:14;;;;;;;1.33;1.33;;;;;;;;;;4970759;28;20215;-84
2023/07/09 07:18:43;;;;;;;6.43;4.67;;;;;;;;;;4971031;28;20201;-85
2023/07/09 07:21:11;;;;;;;2.17;2.07;;;;;;;;;;4971114;28;20281;-85
2023/07/09 07:23:40;;;;;;;6.27;4.07;;;;;;;;;;4971003;28;20204;-85
2023/07/09 07:26:10;;;;;;;1.47;1.43;;;;;;;;;;4970491;28;20280;-85
2023/07/09 07:28:39;;;;;;;1.03;1.03;;;;;;;;;;4970804;28;20250;-85
2023/07/09 07:31:08;;;;;;;6.30;3.60;;;;;;;;;;4970793;28;20195;-86
2023/07/09 07:33:38;;;;;;;6.50;2.47;;;;;;;;;;4970434;28;20199;-85
2023/07/09 07:36:07;;;;;;;3.70;1.70;;;;;;;;;;4970651;28;20203;-85
2023/07/09 07:38:38;;;;;;;3.23;2.13;;;;;;;;;;4970976;28;20202;-85
2023/07/09 07:41:07;;;;;;;2.37;2.17;;;;;;;;;;4970396;28;20197;-85
2023/07/09 07:43:37;;;;;;;0.63;0.63;;;;;;;;;;4970533;28;20217;-85
2023/07/09 07:46:05;;;;;;;0.70;0.70;;;;;;;;;;4969791;28;20236;-85
2023/07/09 07:48:34;;;;;;;3.00;2.10;;;;;;;;;;4970792;28;20300;-85
2023/07/09 07:51:04;;;;;;;1.37;1.27;;;;;;;;;;4970320;28;20209;-85
2023/07/09 07:53:33;;;;;;;1.70;1.33;;;;;;;;;;4970728;28;20253;-85
2023/07/09 07:56:02;;;;;;;2.07;1.97;;;;;;;;;;4970261;28;20204;-85
2023/07/09 07:58:32;;;;;;;4.73;1.90;;;;;;;;;;4970596;28;20201;-85
2023/07/09 08:01:02;;;;;;;2.50;2.23;;;;;;;;;;4970252;28;20267;-86
2023/07/09 08:03:31;;;;;;;2.63;2.53;;;;;;;;;;4970327;28;20204;-86
2023/07/09 08:06:00;;;;;;;1.37;1.27;;;;;;;;;;4970264;28;20257;-87
2023/07/09 08:08:30;;;;;;;1.23;1.10;;;;;;;;;;4970056;28;20212;-87
2023/07/09 08:11:04;;;;;;;1.37;1.13;;;;;;;;;;4970544;28;20231;-86
2023/07/09 08:13:34;;;;;;;0.77;0.77;;;;;;;;;;4976088;28;20200;-86
2023/07/09 08:16:04;;;;;;;5.20;2.57;;;;;;;;;;4976735;28;20238;-86
2023/07/09 08:18:33;;;;;;;1.73;1.63;;;;;;;;;;4977030;28;20250;-86
2023/07/09 08:21:03;;;;;;;2.10;1.60;;;;;;;;;;4976832;28;20208;-86
2023/07/09 08:23:31;;;;;;;2.03;1.60;;;;;;;;;;4976111;28;20227;-87
2023/07/09 08:26:02;;;;;;;3.83;1.93;;;;;;;;;;4976839;28;20201;-86
2023/07/09 08:28:32;;;;;;;1.37;1.27;;;;;;;;;;4977079;28;20232;-87
2023/07/09 08:31:00;;;;;;;1.90;1.77;;;;;;;;;;4976645;28;20275;-86
2023/07/09 08:33:31;;;;;;;1.50;1.40;;;;;;;;;;4976382;28;20203;-86
2023/07/09 08:36:00;;;;;;;1.80;1.17;;;;;;;;;;4976850;28;20234;-86
2023/07/09 08:38:28;;;;;;;1.83;1.27;;;;;;;;;;4976571;28;20215;-86
2023/07/09 08:40:59;;;;;;;1.67;1.57;;;;;;;;;;4976769;28;20218;-86
2023/07/09 08:43:37;;;;;;;1.70;1.60;;;;;;;;;;4976251;28;20274;-87
2023/07/09 08:46:15;;;;;;;1.83;1.73;;;;;;;;;;4976365;28;20197;-87
2023/07/09 08:48:46;;;;;;;1.53;1.43;;;;;;;;;;4977088;28;20212;-87
2023/07/09 08:51:17;;;;;;;5.37;1.43;;;;;;;;;;4975435;28;20203;-86
2023/07/09 08:53:47;;;;;;;3.50;1.57;;;;;;;;;;4976593;28;20200;-86
2023/07/09 08:56:16;;;;;;;3.93;1.90;;;;;;;;;;4976603;28;20204;-87
2023/07/09 08:58:46;;;;;;;2.80;1.67;;;;;;;;;;4976313;28;20205;-87
2023/07/09 09:01:18;;;;;;;2.03;1.83;;;;;;;;;;4976063;28;20279;-87
2023/07/09 09:03:50;;;;;;;2.70;0.80;;;;;;;;;;4976110;28;20310;-87
2023/07/09 09:06:21;;;;;;;1.63;1.53;;;;;;;;;;4976078;28;20307;-87
2023/07/09 09:09:00;;;;;;;3.27;1.60;;;;;;;;;;4975563;28;20258;-86
2023/07/09 09:11:33;;;;;;;2.63;0.90;;;;;;;;;;4976354;28;20204;-87
2023/07/09 09:14:03;;;;;;;1.00;1.00;;;;;;;;;;4976614;28;20208;-87
2023/07/09 09:16:32;;;;;;;0.27;0.27;;;;;;;;;;4975962;28;20219;-87
2023/07/09 09:19:03;;;;;;;1.40;1.30;;;;;;;;;;4976572;28;20296;-86
2023/07/09 09:21:33;;;;;;;4.37;1.33;;;;;;;;;;4976080;28;20209;-87
2023/07/09 09:24:11;;;;;;;2.30;2.00;;;;;;;;;;4973127;28;20306;-86
2023/07/09 09:26:42;;;;;;;2.67;1.80;;;;;;;;;;4972565;28;20254;-86
2023/07/09 09:29:12;;;;;;;0.30;0.30;;;;;;;;;;4972605;28;20283;-86
2023/07/09 09:31:42;;;;;;;3.80;1.33;;;;;;;;;;4972597;28;20201;-86
2023/07/09 09:34:20;;;;;;;2.00;1.43;;;;;;;;;;4971882;28;20189;-86
2023/07/09 09:36:50;;;;;;;1.00;1.00;;;;;;;;;;4972406;28;20228;-85
2023/07/09 09:39:19;;;;;;;2.57;1.77;;;;;;;;;;4972434;28;20194;-85
2023/07/09 09:41:48;;;;;;;1.43;1.33;;;;;;;;;;4972277;28;20197;-85
2023/07/09 09:44:20;;;;;;;1.27;1.20;;;;;;;;;;4971892;28;20213;-85
2023/07/09 09:46:49;;;;;;;0.90;0.90;;;;;;;;;;4972568;28;20282;-85
2023/07/09 09:49:18;;;;;;;1.30;1.20;;;;;;;;;;4972724;28;20212;-86
2023/07/09 09:51:48;;;;;;;0.80;0.80;;;;;;;;;;4971650;28;20216;-87
2023/07/09 09:54:19;;;;;;;1.60;1.50;;;;;;;;;;4972448;28;20216;-86
2023/07/09 09:56:49;;;;;;;7.03;1.23;;;;;;;;;;4972404;28;20219;-87
2023/07/09 09:59:20;;;;;;;2.23;1.10;;;;;;;;;;4972478;28;20242;-86
2023/07/09 10:01:48;;;;;;;3.00;1.20;;;;;;;;;;4971985;28;20208;-86
2023/07/09 10:04:19;;;;;;;0.97;0.80;;;;;;;;;;4972127;28;20232;-86
2023/07/09 10:06:52;;;;;;;1.73;1.43;;;;;;;;;;4971867;28;20237;-86
2023/07/09 10:09:25;;;;;;;1.30;1.20;;;;;;;;;;4971665;28;20197;-86
2023/07/09 10:11:59;;;;;;;2.27;1.50;;;;;;;;;;4972107;28;20209;-86
2023/07/09 10:14:34;;;;;;;1.60;1.33;;;;;;;;;;4972081;28;20198;-86
2023/07/09 10:17:07;;;;;;;1.33;1.10;;;;;;;;;;4972239;28;20307;-87
2023/07/09 10:19:40;;;;;;;0.80;0.80;;;;;;;;;;4971876;28;20201;-87
2023/07/09 10:22:14;;;;;;;2.00;1.33;;;;;;;;;;4971902;28;20232;-87
2023/07/09 10:24:49;;;;;;;3.67;1.03;;;;;;;;;;4971873;28;20228;-87
2023/07/09 10:27:21;;;;;;;1.10;1.00;;;;;;;;;;4972116;28;20319;-86
2023/07/09 10:29:57;;;;;;;1.60;1.10;;;;;;;;;;4971773;28;20209;-86
2023/07/09 10:32:49;;;;;;;1.03;0.90;;;;;;;;;;4972031;28;20201;-87
2023/07/09 10:35:23;;;;;;;1.33;1.33;;;;;;;;;;4971090;28;20233;-87
2023/07/09 10:38:00;;;;;;;1.10;0.97;;;;;;;;;;4971863;28;20243;-87
2023/07/09 10:40:32;;;;;;;3.23;0.73;;;;;;;;;;4971636;28;20299;-86
2023/07/09 10:43:03;;;;;;;1.77;1.30;;;;;;;;;;4971454;28;20231;-87
2023/07/09 10:45:33;;;;;;;4.17;1.10;;;;;;;;;;4971446;28;20208;-86
2023/07/09 10:48:04;;;;;;;0.70;0.70;;;;;;;;;;4971699;28;20201;-87
2023/07/09 10:50:34;;;;;;;1.50;1.40;;;;;;;;;;4971561;28;20292;-86
2023/07/09 10:53:08;;;;;;;0.90;0.90;;;;;;;;;;4970808;28;20197;-85
2023/07/09 10:55:41;;;;;;;3.60;1.27;;;;;;;;;;4971840;28;20201;-86
2023/07/09 10:58:17;;;;;;;2.10;0.73;;;;;;;;;;4971118;28;20201;-86
2023/07/09 11:00:45;;;;;;;0.97;0.97;;;;;;;;;;4971178;28;20193;-86
2023/07/09 11:03:16;;;;;;;0.63;0.63;;;;;;;;;;4971303;28;20270;-85
2023/07/09 11:05:45;;;;;;;1.93;1.03;;;;;;;;;;4971347;28;20241;-86
2023/07/09 11:08:16;;;;;;;0.53;0.53;;;;;;;;;;4971794;28;20216;-86
2023/07/09 11:10:50;;;;;;;0.90;0.90;;;;;;;;;;4971009;28;20335;-85
2023/07/09 11:13:23;;;;;;;0.33;0.33;;;;;;;;;;4971508;28;20232;-86
2023/07/09 11:15:58;;;;;;;2.57;1.40;;;;;;;;;;4971794;28;20213;-86
2023/07/09 11:18:28;;;;;;;1.57;1.47;;;;;;;;;;4971032;28;20209;-86
2023/07/09 11:21:00;;;;;;;0.43;0.43;;;;;;;;;;4971746;28;20227;-86
2023/07/09 11:23:40;;;;;;;2.73;2.20;;;;;;;;;;4971185;28;20236;-85
2023/07/09 11:26:16;;;;;;;0.23;0.23;;;;;;;;;;4971037;28;20230;-85
2023/07/09 11:28:48;;;;;;;1.17;0.80;;;;;;;;;;4970624;28;20224;-85
2023/07/09 11:31:21;;;;;;;1.00;0.47;;;;;;;;;;4971267;28;20203;-86
2023/07/09 11:33:58;;;;;;;1.57;1.47;;;;;;;;;;4970950;28;20198;-86
2023/07/09 11:36:29;;;;;;;3.30;1.47;;;;;;;;;;4970408;28;20210;-86
2023/07/09 11:38:59;;;;;;;1.30;1.27;;;;;;;;;;4970862;28;20200;-86
2023/07/09 11:41:29;;;;;;;4.87;2.17;;;;;;;;;;4970777;28;20197;-86
2023/07/09 11:44:13;;;;;;;0.60;0.60;;;;;;;;;;4970322;28;20225;-86
2023/07/09 11:46:50;;;;;;;3.13;0.90;;;;;;;;;;4970006;28;20266;-86
2023/07/09 11:49:20;;;;;;;1.27;1.00;;;;;;;;;;4970705;28;20277;-85
2023/07/09 11:51:52;;;;;;;1.20;1.10;;;;;;;;;;4970264;28;20209;-87
2023/07/09 11:54:22;;;;;;;0.90;0.80;;;;;;;;;;4970639;28;20208;-86
2023/07/09 11:56:57;;;;;;;1.30;1.00;;;;;;;;;;4970588;28;20227;-87
2023/07/09 11:59:26;;;;;;;1.47;1.27;;;;;;;;;;4970940;28;20207;-87
2023/07/09 12:01:55;;;;;;;0.80;0.67;;;;;;;;;;4970072;28;20209;-86
2023/07/09 12:04:25;;;;;;;1.77;1.53;;;;;;;;;;4970300;28;20225;-86
2023/07/09 12:06:58;;;;;;;2.83;1.53;;;;;;;;;;4970516;28;20245;-86
2023/07/09 12:09:33;;;;;;;2.83;1.77;;;;;;;;;;4970221;28;20207;-86
2023/07/09 12:12:02;;;;;;;1.13;1.07;;;;;;;;;;4970048;28;20205;-87
2023/07/09 12:14:30;;;;;;;1.00;0.80;;;;;;;;;;4970048;28;20208;-87
2023/07/09 12:16:59;;;;;;;3.97;1.60;;;;;;;;;;4970490;28;20204;-86
2023/07/09 12:19:31;;;;;;;1.07;0.97;;;;;;;;;;4970139;28;20251;-87
2023/07/09 12:22:00;;;;;;;6.17;2.20;;;;;;;;;;4970391;28;20236;-87
2023/07/09 12:24:30;;;;;;;2.77;2.20;;;;;;;;;;4969906;28;20225;-86
2023/07/09 12:27:00;;;;;;;4.83;1.80;;;;;;;;;;4970637;28;20241;-86
2023/07/09 12:29:30;;;;;;;6.60;2.20;;;;;;;;;;4969942;28;20205;-86
2023/07/09 12:31:59;;;;;;;2.80;2.00;;;;;;;;;;4969441;28;20201;-86
2023/07/09 12:34:32;;;;;;;3.53;2.03;;;;;;;;;;4967217;28;20200;-85
2023/07/09 12:37:01;;;;;;;4.17;2.33;;;;;;;;;;4963329;28;20218;-84
2023/07/09 12:39:33;;;;;;;7.87;3.20;;;;;;;;;;4971267;28;20232;-85
2023/07/09 12:42:05;;;;;;;3.67;3.13;;;;;;;;;;4971454;28;20224;-85
2023/07/09 12:44:37;;;;;;;6.97;4.53;;;;;;;;;;4969713;28;20223;-85
2023/07/09 12:47:06;;;;;;;6.43;3.27;;;;;;;;;;4969594;28;20199;-85
2023/07/09 12:49:39;;;;;;;8.90;4.60;;;;;;;;;;4970287;28;20299;-85
2023/07/09 12:52:10;;;;;;;13.43;5.43;;;;;;;;;;4969391;28;20213;-85
2023/07/09 12:54:40;;;;;;;5.93;2.97;;;;;;;;;;4969781;28;20201;-85
2023/07/09 12:57:16;;;;;;;4.90;2.57;;;;;;;;;;4969713;28;20209;-85
2023/07/09 12:59:47;;;;;;;14.57;5.40;;;;;;;;;;4972899;28;20209;-85
2023/07/09 13:02:17;;;;;;;9.37;5.03;;;;;;;;;;4972735;28;20204;-85
2023/07/09 13:04:46;;;;;;;7.60;2.73;;;;;;;;;;4973203;28;20231;-86
2023/07/09 13:07:32;;;;;;;7.93;2.77;;;;;;;;;;4972647;28;20243;-85
2023/07/09 13:10:07;;;;;;;9.00;4.23;;;;;;;;;;4973388;28;20212;-85
2023/07/09 13:12:36;;;;;;;12.03;5.33;;;;;;;;;;4972544;28;20200;-85
2023/07/09 13:15:05;;;;;;;7.33;4.87;;;;;;;;;;4972721;28;20205;-85
2023/07/09 13:17:35;;;;;;;8.43;6.10;;;;;;;;;;4972839;28;20215;-85
2023/07/09 13:20:04;;;;;;;10.57;3.43;;;;;;;;;;4972481;28;20216;-85
2023/07/09 13:22:32;;;;;;;15.27;4.73;;;;;;;;;;4972595;28;20258;-85
2023/07/09 13:25:03;;;;;;;10.63;6.83;;;;;;;;;;4972917;28;20237;-86
2023/07/09 13:27:31;;;;;;;14.43;6.63;;;;;;;;;;4972545;28;20224;-85
2023/07/09 13:30:00;;;;;;;6.37;4.47;;;;;;;;;;4972660;28;20201;-85
2023/07/09 13:32:28;;;;;;;8.80;4.77;;;;;;;;;;4972804;28;20223;-85
2023/07/09 13:34:57;;;;;;;9.13;4.60;;;;;;;;;;4972740;28;20287;-85
2023/07/09 13:37:25;;;;;;;10.23;4.53;;;;;;;;;;4972371;28;20200;-85
2023/07/09 13:39:54;;;;;;;5.10;4.60;;;;;;;;;;4973007;28;20204;-85
2023/07/09 13:42:26;;;;;;;5.10;3.73;;;;;;;;;;4972115;28;20219;-85
2023/07/09 13:44:56;;;;;;;3.10;2.70;;;;;;;;;;4972574;28;20218;-85
2023/07/09 13:47:24;;;;;;;3.73;3.40;;;;;;;;;;4971894;28;20239;-86
2023/07/09 13:49:53;;;;;;;6.03;3.77;;;;;;;;;;4973178;28;20201;-86
2023/07/09 13:52:25;;;;;;;4.43;2.97;;;;;;;;;;4972051;28;20213;-86
2023/07/09 13:54:54;;;;;;;7.73;2.87;;;;;;;;;;4971613;28;20199;-86
2023/07/09 13:57:24;;;;;;;5.40;3.83;;;;;;;;;;4972178;28;20205;-86
2023/07/09 13:59:52;;;;;;;3.43;2.20;;;;;;;;;;4972908;28;20209;-86
2023/07/09 14:02:23;;;;;;;7.53;3.30;;;;;;;;;;4971783;28;20262;-86
2023/07/09 14:04:53;;;;;;;3.83;3.23;;;;;;;;;;4972118;28;20270;-86
2023/07/09 14:07:26;;;;;;;3.73;1.97;;;;;;;;;;4972045;28;20243;-86
2023/07/09 14:09:54;;;;;;;4.40;3.17;;;;;;;;;;4971841;28;20208;-86
2023/07/09 14:12:24;;;;;;;6.10;3.47;;;;;;;;;;4971551;28;20208;-86
2023/07/09 14:14:53;;;;;;;2.13;1.77;;;;;;;;;;4972885;28;20204;-86
2023/07/09 14:17:23;;;;;;;3.37;2.97;;;;;;;;;;4971865;28;20234;-86
2023/07/09 14:19:51;;;;;;;4.17;3.43;;;;;;;;;;4971992;28;20242;-86
2023/07/09 14:22:22;;;;;;;5.77;3.53;;;;;;;;;;4971681;28;20239;-86
2023/07/09 14:24:51;;;;;;;4.33;3.23;;;;;;;;;;4972112;28;20237;-86
2023/07/09 14:27:20;;;;;;;4.57;4.10;;;;;;;;;;4971882;28;20228;-86
2023/07/09 14:29:50;;;;;;;3.97;2.87;;;;;;;;;;4971858;28;20207;-86
2023/07/09 14:32:32;;;;;;;13.17;5.00;;;;;;;;;;4971560;28;20238;-86
2023/07/09 14:35:01;;;;;;;3.07;2.40;;;;;;;;;;4972085;28;20301;-86
2023/07/09 14:37:31;;;;;;;3.93;3.60;;;;;;;;;;4971214;28;20212;-86
2023/07/09 14:40:00;;;;;;;5.27;4.13;;;;;;;;;;4971683;28;20212;-86
2023/07/09 14:42:28;;;;;;;5.43;3.43;;;;;;;;;;4971546;28;20210;-86
2023/07/09 14:44:58;;;;;;;11.50;3.90;;;;;;;;;;4971625;28;20203;-86
2023/07/09 14:47:27;;;;;;;1.37;1.27;;;;;;;;;;4971645;28;20210;-86
2023/07/09 14:49:56;;;;;;;3.90;2.50;;;;;;;;;;4971674;28;20256;-86
2023/07/09 14:52:25;;;;;;;5.07;2.60;;;;;;;;;;4971837;28;20212;-86
2023/07/09 14:54:53;;;;;;;2.20;2.00;;;;;;;;;;4971199;28;20205;-85